Robijn — PBEJ — position and weather

sailwx.info

Track history (hours):
 
Tides and Currents Weather Stations Pressure Air Temp Water Temp Dewpoint Dewpoint Depression Visibility Wind Speed Wind Dir Waves Ship Positions

Robijn

Last reported at 2016-Aug-27 13:21 UTC. Time now 2016-Aug-27 15:08 UTC.
Position N 51°57' E 003°23'.

Length 90 m; draft 5.5 m.

Type: Cargo ship. MMSI: 245909000.

Date/timePositionNaut miles runAvg speedWind from/ knotsBaromVisibWave heightAir tempDewpointWater temp
2016-Aug-27 13:21N 51°57' E 003°23'8 9.7
2016-Aug-27 12:33N 51°50' E 003°18'8 8.4
2016-Aug-27 11:33N 51°42' E 003°18'1111.2
2016-Aug-27 10:33N 51°32' E 003°26'1010.4
2016-Aug-27 09:33N 51°27' E 003°40'9 9.1
2016-Aug-27 08:33N 51°21' E 003°52'8 7.7
2016-Aug-27 07:33N 51°26' E 004°01'6 6.3
2016-Aug-27 06:33N 51°24' E 004°11'5 2.5
2016-Aug-27 04:34N 51°21' E 004°17'3 2.7
2016-Aug-27 03:33N 51°18' E 004°19'3 2.9
2016-Aug-27 02:34N 51°16' E 004°22'0 0.0
2016-Aug-27 01:34N 51°16' E 004°22'0 0.0
2016-Aug-27 00:34N 51°16' E 004°22'0 0.2
2016-Aug-26 23:32N 51°16' E 004°22'0 0.0
2016-Aug-26 22:32N 51°16' E 004°22'0 0.0
2016-Aug-26 21:32N 51°16' E 004°22'0 0.0
2016-Aug-26 20:32N 51°16' E 004°22'0 0.0
2016-Aug-26 19:32N 51°16' E 004°22'0 0.0
2016-Aug-26 18:32N 51°16' E 004°22'0 0.0
2016-Aug-26 17:32N 51°16' E 004°22'0 0.3
2016-Aug-26 16:32N 51°16' E 004°22'0 0.0
2016-Aug-26 15:32N 51°16' E 004°22'0 0.0
2016-Aug-26 14:32N 51°16' E 004°22'0 0.0
2016-Aug-26 13:32N 51°16' E 004°22'0 0.0
2016-Aug-26 12:32N 51°16' E 004°22'0 0.0
2016-Aug-26 11:32N 51°16' E 004°22'0 0.0
2016-Aug-26 10:32N 51°16' E 004°22'0 0.0
2016-Aug-26 09:32N 51°16' E 004°22'0 0.0
2016-Aug-26 08:32N 51°16' E 004°22'0 0.0
2016-Aug-26 07:32N 51°16' E 004°22'0 0.0
2016-Aug-26 06:32N 51°16' E 004°22'0 0.0
2016-Aug-26 04:32N 51°16' E 004°22'0 0.0
2016-Aug-26 03:32N 51°16' E 004°22'0 0.0
2016-Aug-26 02:32N 51°16' E 004°22'0 0.0
2016-Aug-26 01:32N 51°16' E 004°22'2 1.7
2016-Aug-26 00:33N 51°17' E 004°20'4 4.0
2016-Aug-25 23:34N 51°21' E 004°17'4 3.9
2016-Aug-25 22:34N 51°23' E 004°13'7 7.1
2016-Aug-25 21:34N 51°25' E 004°02'9 8.6
2016-Aug-25 20:33N 51°21' E 003°50'1010.4
2016-Aug-25 19:34N 51°25' E 003°35'9 9.5
2016-Aug-25 18:34N 51°33' E 003°25'1211.6
2016-Aug-25 17:34N 51°43' E 003°16'3 1.1
2016-Aug-25 14:30N 51°46' E 003°13'7 7.5
2016-Aug-25 13:34N 51°45' E 003°02'7 7.4
2016-Aug-25 12:34N 51°45' E 002°50'8 8.4
2016-Aug-25 11:33N 51°44' E 002°37'9 8.8
2016-Aug-25 10:33N 51°38' E 002°27'9 9.4
2016-Aug-25 09:34N 51°30' E 002°18'10 9.9
2016-Aug-25 08:34N 51°22' E 002°11'1010.3
2016-Aug-25 07:33N 51°13' E 002°01'1110.8
2016-Aug-25 06:34N 51°06' E 001°48'2411.9
2016-Aug-25 04:32N 50°48' E 001°23'1111.0
2016-Aug-25 03:32N 50°39' E 001°12'1010.4
2016-Aug-25 02:33N 50°33' E 000°60'1210.4
2016-Aug-25 01:26N 50°29' E 000°42'910.9
2016-Aug-25 00:33N 50°26' E 000°28'1110.7
2016-Aug-24 23:33N 50°23' E 000°12'1010.0
2016-Aug-24 22:34N 50°20' W 000°03'9 9.2
2016-Aug-24 21:34N 50°18' W 000°17'9 8.5
2016-Aug-24 20:32N 50°16' W 000°30'8 7.7
2016-Aug-24 19:34N 50°14' W 000°42'7 7.2
2016-Aug-24 18:34N 50°12' W 000°53'7 6.9
2016-Aug-24 17:34N 50°10' W 001°03'8 7.7
2016-Aug-24 16:34N 50°08' W 001°14'10 9.2
2016-Aug-24 15:31N 50°05' W 001°29'1010.6
2016-Aug-24 14:34N 50°03' W 001°44'1412.0
2016-Aug-24 13:22N 49°59' W 002°06'1212.8
2016-Aug-24 12:26N 49°56' W 002°24'1212.8
2016-Aug-24 11:28N 49°53' W 002°42'1212.7
2016-Aug-24 10:34N 49°51' W 002°60'1212.5
2016-Aug-24 09:34N 49°51' W 003°19'1212.3
2016-Aug-24 08:34N 49°51' W 003°38'1212.0
2016-Aug-24 07:34N 49°51' W 003°57'1511.6
2016-Aug-24 06:16N 49°51' W 004°20'1911.1
2016-Aug-24 04:33N 49°51' W 004°49'1110.5
2016-Aug-24 03:31N 49°52' W 005°06'10 9.6
2016-Aug-24 02:32N 49°53' W 005°21'1010.3
2016-Aug-24 01:34N 49°54' W 005°36'1111.1
2016-Aug-24 00:34N 49°55' W 005°54'10 9.8
2016-Aug-23 23:34N 50°04' W 006°01'1312.8
2016-Aug-23 22:33N 50°16' W 006°01'1211.8
2016-Aug-23 21:33N 50°28' W 006°03'1111.4
2016-Aug-23 20:34N 50°39' W 006°08'1411.3
2016-Aug-23 19:18N 50°52' W 006°16'4512.0
2016-Aug-23 15:34N 51°34' W 006°41'1212.0
2016-Aug-23 14:34N 51°46' W 006°47'1211.8
2016-Aug-23 13:34N 51°57' W 006°53'1212.1
2016-Aug-23 12:34N 52°08' W 006°59'8 8.1
2016-Aug-23 11:34N 52°16' W 007°01'1 0.8
2016-Aug-23 10:31N 52°16' W 007°02'0 0.0
2016-Aug-23 09:31N 52°16' W 007°02'0 0.0
2016-Aug-23 08:31N 52°16' W 007°02'0 0.0
2016-Aug-23 07:31N 52°16' W 007°02'0 0.0
2016-Aug-23 06:31N 52°16' W 007°02'0 0.0
2016-Aug-23 05:31N 52°16' W 007°02'0 0.0
2016-Aug-23 04:31N 52°16' W 007°02'0 0.0
2016-Aug-23 03:31N 52°16' W 007°02'0 0.0
2016-Aug-23 02:31N 52°16' W 007°02'0 0.0
2016-Aug-23 01:31N 52°16' W 007°02'0 0.0
2016-Aug-23 00:31N 52°16' W 007°02'0 0.0
2016-Aug-22 23:31N 52°16' W 007°02'0 0.0
2016-Aug-22 22:31N 52°16' W 007°02'0 0.0
2016-Aug-22 21:31N 52°16' W 007°02'0 0.0
2016-Aug-22 20:31N 52°16' W 007°02'0 0.0
2016-Aug-22 19:31N 52°16' W 007°02'0 0.0
2016-Aug-22 18:31N 52°16' W 007°02'0 0.0
2016-Aug-22 17:31N 52°16' W 007°02'0 0.0
2016-Aug-22 16:31N 52°16' W 007°02'0 0.0
2016-Aug-22 15:31N 52°16' W 007°02'0 0.0
2016-Aug-22 14:25N 52°16' W 007°02'0 0.0
2016-Aug-22 13:31N 52°16' W 007°02'0 0.0
2016-Aug-22 12:31N 52°16' W 007°02'0 0.0
2016-Aug-22 11:31N 52°16' W 007°02'0 0.0
2016-Aug-22 10:31N 52°16' W 007°02'0 0.0
2016-Aug-22 09:31N 52°16' W 007°02'0 0.0
2016-Aug-22 08:25N 52°16' W 007°02'0 0.0
2016-Aug-22 07:31N 52°16' W 007°02'0 0.0
2016-Aug-22 06:31N 52°16' W 007°02'0 0.0
2016-Aug-22 05:31N 52°16' W 007°02'0 0.0
2016-Aug-22 04:31N 52°16' W 007°02'0 0.0
2016-Aug-22 03:31N 52°16' W 007°02'0 0.0
2016-Aug-22 02:31N 52°16' W 007°02'0 0.0
2016-Aug-22 01:31N 52°16' W 007°02'0 0.0
2016-Aug-22 00:31N 52°16' W 007°02'0 0.0
2016-Aug-21 23:31N 52°16' W 007°02'0 0.0
2016-Aug-21 22:31N 52°16' W 007°02'0 0.0
2016-Aug-21 21:25N 52°16' W 007°02'0 0.0
2016-Aug-21 20:31N 52°16' W 007°02'0 0.0
2016-Aug-21 19:31N 52°16' W 007°02'0 0.0
2016-Aug-21 18:31N 52°16' W 007°02'0 0.0
2016-Aug-21 17:31N 52°16' W 007°02'0 0.0
2016-Aug-21 16:31N 52°16' W 007°02'0 0.0
2016-Aug-21 15:31N 52°16' W 007°02'0 0.0
2016-Aug-21 14:31N 52°16' W 007°02'0 0.0
2016-Aug-21 13:31N 52°16' W 007°02'0 0.0
2016-Aug-21 12:25N 52°16' W 007°02'0 0.0
2016-Aug-21 11:31N 52°16' W 007°02'0 0.0
2016-Aug-21 10:31N 52°16' W 007°02'0 0.0
2016-Aug-21 09:33N 52°16' W 007°02'4 3.8
2016-Aug-21 08:33N 52°14' W 006°57'5 5.3
2016-Aug-21 07:33N 52°09' W 006°58'6 6.4
2016-Aug-21 06:33N 52°04' W 007°05'8 7.8
2016-Aug-21 05:33N 51°59' W 007°14'9 8.6
2016-Aug-21 04:33N 51°53' W 007°25'8 8.2
2016-Aug-21 03:33N 51°47' W 007°35'8 8.3
2016-Aug-21 02:33N 51°42' W 007°45'8 8.2
2016-Aug-21 01:33N 51°37' W 007°55'5 5.3
2016-Aug-21 00:33N 51°32' W 007°50'6 6.4
2016-Aug-20 23:33N 51°28' W 007°42'6 6.0
2016-Aug-20 22:32N 51°25' W 007°34'74 4.5
2016-Aug-20 06:05N 50°40' W 006°00'3 3.9
2016-Aug-20 05:23N 50°38' W 005°57'4 4.4
2016-Aug-20 04:34N 50°35' W 005°54'7 7.3
2016-Aug-20 03:32N 50°28' W 005°54'8 7.5
2016-Aug-20 02:32N 50°20' W 005°54'28 5.6
2016-Aug-19 21:31N 49°56' W 005°32'14 4.2
2016-Aug-19 18:06N 49°55' W 005°10'2 3.6
2016-Aug-19 17:28N 49°54' W 005°06'10 5.2
2016-Aug-19 15:28N 49°54' W 004°50'8 7.7
2016-Aug-19 14:29N 49°55' W 004°38'8 8.4
2016-Aug-19 13:31N 49°55' W 004°26'9 9.3
2016-Aug-19 12:32N 49°57' W 004°12'9 8.9
2016-Aug-19 11:33N 49°57' W 003°58'9 8.6
2016-Aug-19 10:34N 49°58' W 003°45'8 8.4
2016-Aug-19 09:33N 49°59' W 003°32'8 7.8
2016-Aug-19 08:33N 50°00' W 003°20'8 7.6
2016-Aug-19 07:33N 50°01' W 003°08'8 7.7
2016-Aug-19 06:33N 50°01' W 002°56'8 8.2
2016-Aug-19 05:31N 50°02' W 002°43'6111.6
2016-Aug-19 00:16N 49°54' W 001°09'811.3
2016-Aug-18 23:33N 49°49' W 000°58'9 9.5
2016-Aug-18 22:33N 49°45' W 000°45'8 8.2
2016-Aug-18 21:33N 49°41' W 000°34'7 7.3
2016-Aug-18 20:33N 49°37' W 000°25'8 8.2
2016-Aug-18 19:33N 49°33' W 000°14'9 8.6
2016-Aug-18 18:33N 49°29' W 000°03'9 9.4
2016-Aug-18 17:33N 49°26' E 000°11'1212.0
2016-Aug-18 16:33N 49°29' E 000°29'11 8.3
2016-Aug-18 15:11N 49°30' E 000°46'  
Track history (hours):
 
Tides and Currents Weather Stations Pressure Air Temp Water Temp Dewpoint Dewpoint Depression Visibility Wind Speed Wind Dir Waves Ship Positions

Robijn

Last reported at 2016-Aug-27 13:21 UTC. Time now 2016-Aug-27 15:08 UTC.
Position N 51°57' E 003°23'.

Length 90 m; draft 5.5 m.

Type: Cargo ship. MMSI: 245909000.

Date/timePositionNaut miles runAvg speedWind from/ knotsBaromVisibWave heightAir tempDewpointWater temp
2016-Aug-27 13:21N 51°57' E 003°23'8 9.7
2016-Aug-27 12:33N 51°50' E 003°18'8 8.4
2016-Aug-27 11:33N 51°42' E 003°18'1111.2
2016-Aug-27 10:33N 51°32' E 003°26'1010.4
2016-Aug-27 09:33N 51°27' E 003°40'9 9.1
2016-Aug-27 08:33N 51°21' E 003°52'8 7.7
2016-Aug-27 07:33N 51°26' E 004°01'6 6.3
2016-Aug-27 06:33N 51°24' E 004°11'5 2.5
2016-Aug-27 04:34N 51°21' E 004°17'3 2.7
2016-Aug-27 03:33N 51°18' E 004°19'3 2.9
2016-Aug-27 02:34N 51°16' E 004°22'0 0.0
2016-Aug-27 01:34N 51°16' E 004°22'0 0.0
2016-Aug-27 00:34N 51°16' E 004°22'0 0.2
2016-Aug-26 23:32N 51°16' E 004°22'0 0.0
2016-Aug-26 22:32N 51°16' E 004°22'0 0.0
2016-Aug-26 21:32N 51°16' E 004°22'0 0.0
2016-Aug-26 20:32N 51°16' E 004°22'0 0.0
2016-Aug-26 19:32N 51°16' E 004°22'0 0.0
2016-Aug-26 18:32N 51°16' E 004°22'0 0.0
2016-Aug-26 17:32N 51°16' E 004°22'0 0.3
2016-Aug-26 16:32N 51°16' E 004°22'0 0.0
2016-Aug-26 15:32N 51°16' E 004°22'0 0.0
2016-Aug-26 14:32N 51°16' E 004°22'0 0.0
2016-Aug-26 13:32N 51°16' E 004°22'0 0.0
2016-Aug-26 12:32N 51°16' E 004°22'0 0.0
2016-Aug-26 11:32N 51°16' E 004°22'0 0.0
2016-Aug-26 10:32N 51°16' E 004°22'0 0.0
2016-Aug-26 09:32N 51°16' E 004°22'0 0.0
2016-Aug-26 08:32N 51°16' E 004°22'0 0.0
2016-Aug-26 07:32N 51°16' E 004°22'0 0.0
2016-Aug-26 06:32N 51°16' E 004°22'0 0.0
2016-Aug-26 04:32N 51°16' E 004°22'0 0.0
2016-Aug-26 03:32N 51°16' E 004°22'0 0.0
2016-Aug-26 02:32N 51°16' E 004°22'0 0.0
2016-Aug-26 01:32N 51°16' E 004°22'2 1.7
2016-Aug-26 00:33N 51°17' E 004°20'4 4.0
2016-Aug-25 23:34N 51°21' E 004°17'4 3.9
2016-Aug-25 22:34N 51°23' E 004°13'7 7.1
2016-Aug-25 21:34N 51°25' E 004°02'9 8.6
2016-Aug-25 20:33N 51°21' E 003°50'1010.4
2016-Aug-25 19:34N 51°25' E 003°35'9 9.5
2016-Aug-25 18:34N 51°33' E 003°25'1211.6
2016-Aug-25 17:34N 51°43' E 003°16'3 1.1
2016-Aug-25 14:30N 51°46' E 003°13'7 7.5
2016-Aug-25 13:34N 51°45' E 003°02'7 7.4
2016-Aug-25 12:34N 51°45' E 002°50'8 8.4
2016-Aug-25 11:33N 51°44' E 002°37'9 8.8
2016-Aug-25 10:33N 51°38' E 002°27'9 9.4
2016-Aug-25 09:34N 51°30' E 002°18'10 9.9
2016-Aug-25 08:34N 51°22' E 002°11'1010.3
2016-Aug-25 07:33N 51°13' E 002°01'1110.8
2016-Aug-25 06:34N 51°06' E 001°48'2411.9
2016-Aug-25 04:32N 50°48' E 001°23'1111.0
2016-Aug-25 03:32N 50°39' E 001°12'1010.4
2016-Aug-25 02:33N 50°33' E 000°60'1210.4
2016-Aug-25 01:26N 50°29' E 000°42'910.9
2016-Aug-25 00:33N 50°26' E 000°28'1110.7
2016-Aug-24 23:33N 50°23' E 000°12'1010.0
2016-Aug-24 22:34N 50°20' W 000°03'9 9.2
2016-Aug-24 21:34N 50°18' W 000°17'9 8.5
2016-Aug-24 20:32N 50°16' W 000°30'8 7.7
2016-Aug-24 19:34N 50°14' W 000°42'7 7.2
2016-Aug-24 18:34N 50°12' W 000°53'7 6.9
2016-Aug-24 17:34N 50°10' W 001°03'8 7.7
2016-Aug-24 16:34N 50°08' W 001°14'10 9.2
2016-Aug-24 15:31N 50°05' W 001°29'1010.6
2016-Aug-24 14:34N 50°03' W 001°44'1412.0
2016-Aug-24 13:22N 49°59' W 002°06'1212.8
2016-Aug-24 12:26N 49°56' W 002°24'1212.8
2016-Aug-24 11:28N 49°53' W 002°42'1212.7
2016-Aug-24 10:34N 49°51' W 002°60'1212.5
2016-Aug-24 09:34N 49°51' W 003°19'1212.3
2016-Aug-24 08:34N 49°51' W 003°38'1212.0
2016-Aug-24 07:34N 49°51' W 003°57'1511.6
2016-Aug-24 06:16N 49°51' W 004°20'1911.1
2016-Aug-24 04:33N 49°51' W 004°49'1110.5
2016-Aug-24 03:31N 49°52' W 005°06'10 9.6
2016-Aug-24 02:32N 49°53' W 005°21'1010.3
2016-Aug-24 01:34N 49°54' W 005°36'1111.1
2016-Aug-24 00:34N 49°55' W 005°54'10 9.8
2016-Aug-23 23:34N 50°04' W 006°01'1312.8
2016-Aug-23 22:33N 50°16' W 006°01'1211.8
2016-Aug-23 21:33N 50°28' W 006°03'1111.4
2016-Aug-23 20:34N 50°39' W 006°08'1411.3
2016-Aug-23 19:18N 50°52' W 006°16'4512.0
2016-Aug-23 15:34N 51°34' W 006°41'1212.0
2016-Aug-23 14:34N 51°46' W 006°47'1211.8
2016-Aug-23 13:34N 51°57' W 006°53'1212.1
2016-Aug-23 12:34N 52°08' W 006°59'8 8.1
2016-Aug-23 11:34N 52°16' W 007°01'1 0.8
2016-Aug-23 10:31N 52°16' W 007°02'0 0.0
2016-Aug-23 09:31N 52°16' W 007°02'0 0.0
2016-Aug-23 08:31N 52°16' W 007°02'0 0.0
2016-Aug-23 07:31N 52°16' W 007°02'0 0.0
2016-Aug-23 06:31N 52°16' W 007°02'0 0.0
2016-Aug-23 05:31N 52°16' W 007°02'0 0.0
2016-Aug-23 04:31N 52°16' W 007°02'0 0.0
2016-Aug-23 03:31N 52°16' W 007°02'0 0.0
2016-Aug-23 02:31N 52°16' W 007°02'0 0.0
2016-Aug-23 01:31N 52°16' W 007°02'0 0.0
2016-Aug-23 00:31N 52°16' W 007°02'0 0.0
2016-Aug-22 23:31N 52°16' W 007°02'0 0.0
2016-Aug-22 22:31N 52°16' W 007°02'0 0.0
2016-Aug-22 21:31N 52°16' W 007°02'0 0.0
2016-Aug-22 20:31N 52°16' W 007°02'0 0.0
2016-Aug-22 19:31N 52°16' W 007°02'0 0.0
2016-Aug-22 18:31N 52°16' W 007°02'0 0.0
2016-Aug-22 17:31N 52°16' W 007°02'0 0.0
2016-Aug-22 16:31N 52°16' W 007°02'0 0.0
2016-Aug-22 15:31N 52°16' W 007°02'0 0.0
2016-Aug-22 14:25N 52°16' W 007°02'0 0.0
2016-Aug-22 13:31N 52°16' W 007°02'0 0.0
2016-Aug-22 12:31N 52°16' W 007°02'0 0.0
2016-Aug-22 11:31N 52°16' W 007°02'0 0.0
2016-Aug-22 10:31N 52°16' W 007°02'0 0.0
2016-Aug-22 09:31N 52°16' W 007°02'0 0.0
2016-Aug-22 08:25N 52°16' W 007°02'0 0.0
2016-Aug-22 07:31N 52°16' W 007°02'0 0.0
2016-Aug-22 06:31N 52°16' W 007°02'0 0.0
2016-Aug-22 05:31N 52°16' W 007°02'0 0.0
2016-Aug-22 04:31N 52°16' W 007°02'0 0.0
2016-Aug-22 03:31N 52°16' W 007°02'0 0.0
2016-Aug-22 02:31N 52°16' W 007°02'0 0.0
2016-Aug-22 01:31N 52°16' W 007°02'0 0.0
2016-Aug-22 00:31N 52°16' W 007°02'0 0.0
2016-Aug-21 23:31N 52°16' W 007°02'0 0.0
2016-Aug-21 22:31N 52°16' W 007°02'0 0.0
2016-Aug-21 21:25N 52°16' W 007°02'0 0.0
2016-Aug-21 20:31N 52°16' W 007°02'0 0.0
2016-Aug-21 19:31N 52°16' W 007°02'0 0.0
2016-Aug-21 18:31N 52°16' W 007°02'0 0.0
2016-Aug-21 17:31N 52°16' W 007°02'0 0.0
2016-Aug-21 16:31N 52°16' W 007°02'0 0.0
2016-Aug-21 15:31N 52°16' W 007°02'0 0.0
2016-Aug-21 14:31N 52°16' W 007°02'0 0.0
2016-Aug-21 13:31N 52°16' W 007°02'0 0.0
2016-Aug-21 12:25N 52°16' W 007°02'0 0.0
2016-Aug-21 11:31N 52°16' W 007°02'0 0.0
2016-Aug-21 10:31N 52°16' W 007°02'0 0.0
2016-Aug-21 09:33N 52°16' W 007°02'4 3.8
2016-Aug-21 08:33N 52°14' W 006°57'5 5.3
2016-Aug-21 07:33N 52°09' W 006°58'6 6.4
2016-Aug-21 06:33N 52°04' W 007°05'8 7.8
2016-Aug-21 05:33N 51°59' W 007°14'9 8.6
2016-Aug-21 04:33N 51°53' W 007°25'8 8.2
2016-Aug-21 03:33N 51°47' W 007°35'8 8.3
2016-Aug-21 02:33N 51°42' W 007°45'8 8.2
2016-Aug-21 01:33N 51°37' W 007°55'5 5.3
2016-Aug-21 00:33N 51°32' W 007°50'6 6.4
2016-Aug-20 23:33N 51°28' W 007°42'6 6.0
2016-Aug-20 22:32N 51°25' W 007°34'74 4.5
2016-Aug-20 06:05N 50°40' W 006°00'3 3.9
2016-Aug-20 05:23N 50°38' W 005°57'4 4.4
2016-Aug-20 04:34N 50°35' W 005°54'7 7.3
2016-Aug-20 03:32N 50°28' W 005°54'8 7.5
2016-Aug-20 02:32N 50°20' W 005°54'28 5.6
2016-Aug-19 21:31N 49°56' W 005°32'14 4.2
2016-Aug-19 18:06N 49°55' W 005°10'2 3.6
2016-Aug-19 17:28N 49°54' W 005°06'10 5.2
2016-Aug-19 15:28N 49°54' W 004°50'8 7.7
2016-Aug-19 14:29N 49°55' W 004°38'8 8.4
2016-Aug-19 13:31N 49°55' W 004°26'9 9.3
2016-Aug-19 12:32N 49°57' W 004°12'9 8.9
2016-Aug-19 11:33N 49°57' W 003°58'9 8.6
2016-Aug-19 10:34N 49°58' W 003°45'8 8.4
2016-Aug-19 09:33N 49°59' W 003°32'8 7.8
2016-Aug-19 08:33N 50°00' W 003°20'8 7.6
2016-Aug-19 07:33N 50°01' W 003°08'8 7.7
2016-Aug-19 06:33N 50°01' W 002°56'8 8.2
2016-Aug-19 05:31N 50°02' W 002°43'6111.6
2016-Aug-19 00:16N 49°54' W 001°09'811.3
2016-Aug-18 23:33N 49°49' W 000°58'9 9.5
2016-Aug-18 22:33N 49°45' W 000°45'8 8.2
2016-Aug-18 21:33N 49°41' W 000°34'7 7.3
2016-Aug-18 20:33N 49°37' W 000°25'8 8.2
2016-Aug-18 19:33N 49°33' W 000°14'9 8.6
2016-Aug-18 18:33N 49°29' W 000°03'9 9.4
2016-Aug-18 17:33N 49°26' E 000°11'1212.0
2016-Aug-18 16:33N 49°29' E 000°29'11 8.3
2016-Aug-18 15:11N 49°30' E 000°46'  

Dump ship's entire track history